Time;durP1;ratioP1;P1;durP2;ratioP2;P2;SDS_P1;SDS_P2;PMS_P1;PMS_P2;Temp;Humidity;BMP_temperature;BMP_pressure;BME280_temperature;BME280_humidity;BME280_pressure;Samples;Min_cycle;Max_cycle;Signal;HPM_P1;HPM_P2
2021/03/14 00:00:43;;;;;;;0.73;0.50;;;4.70;99.90;;;;;;5022731;28;20057;-76
2021/03/14 00:03:11;;;;;;;0.55;0.55;;;4.70;99.90;;;;;;5015393;28;20042;-72
2021/03/14 00:05:42;;;;;;;0.98;0.40;;;4.70;99.90;;;;;;5007046;28;20096;-71
2021/03/14 00:08:09;;;;;;;1.17;0.45;;;4.70;99.90;;;;;;5014860;28;20371;-73
2021/03/14 00:10:35;;;;;;;0.98;0.50;;;4.80;99.90;;;;;;4999212;28;20026;-73
2021/03/14 00:13:01;;;;;;;2.05;0.60;;;4.80;99.90;;;;;;5018812;28;20021;-75
2021/03/14 00:15:27;;;;;;;1.38;1.17;;;4.80;99.90;;;;;;5021083;28;20081;-75
2021/03/14 00:17:53;;;;;;;0.40;0.40;;;4.80;99.90;;;;;;5018594;28;20061;-75
2021/03/14 00:20:19;;;;;;;0.70;0.50;;;4.90;99.90;;;;;;5019514;28;20022;-75
2021/03/14 00:22:45;;;;;;;1.98;0.52;;;4.90;99.90;;;;;;5016121;28;20521;-74
2021/03/14 00:25:12;;;;;;;1.77;0.70;;;4.90;99.90;;;;;;5018232;28;20115;-75
2021/03/14 00:27:38;;;;;;;0.75;0.50;;;4.90;99.90;;;;;;5017936;28;20033;-75
2021/03/14 00:30:05;;;;;;;0.60;0.45;;;4.90;99.90;;;;;;5021007;28;20049;-75
2021/03/14 00:32:32;;;;;;;1.20;0.77;;;4.90;99.90;;;;;;5031844;28;20018;-74
2021/03/14 00:34:59;;;;;;;1.95;0.60;;;4.90;99.90;;;;;;5027822;28;20089;-74
2021/03/14 00:37:25;;;;;;;0.95;0.88;;;4.90;99.90;;;;;;5020607;28;20034;-75
2021/03/14 00:39:50;;;;;;;0.55;0.50;;;4.80;99.90;;;;;;5025534;28;20025;-74
2021/03/14 00:42:16;;;;;;;0.77;0.40;;;4.80;99.90;;;;;;5029092;28;20379;-74
2021/03/14 00:44:42;;;;;;;1.42;0.52;;;4.80;99.90;;;;;;5025806;28;20109;-75
2021/03/14 00:47:10;;;;;;;1.10;0.40;;;4.70;99.90;;;;;;5015546;28;20022;-75
2021/03/14 00:49:36;;;;;;;0.93;0.38;;;4.60;99.90;;;;;;5021425;28;20021;-75
2021/03/14 00:52:02;;;;;;;0.40;0.40;;;4.60;99.90;;;;;;5010845;28;20050;-76
2021/03/14 00:54:28;;;;;;;0.55;0.38;;;4.60;99.90;;;;;;5004495;28;20022;-76
2021/03/14 00:56:54;;;;;;;0.40;0.40;;;4.50;99.90;;;;;;5005110;28;20394;-76
2021/03/14 00:59:19;;;;;;;0.85;0.40;;;4.50;99.90;;;;;;5016805;28;20034;-77
2021/03/14 01:01:45;;;;;;;0.52;0.52;;;4.50;99.90;;;;;;5020552;28;20030;-76
2021/03/14 01:04:10;;;;;;;1.73;0.45;;;4.50;99.90;;;;;;5035843;28;20026;-77
2021/03/14 01:06:36;;;;;;;0.45;0.45;;;4.50;99.90;;;;;;5020414;28;20086;-77
2021/03/14 01:09:03;;;;;;;0.77;0.50;;;4.50;99.90;;;;;;5018813;28;20044;-77
2021/03/14 01:11:28;;;;;;;0.57;0.40;;;4.50;99.90;;;;;;5021440;28;20018;-77
2021/03/14 01:13:54;;;;;;;0.80;0.38;;;4.50;99.90;;;;;;5013462;28;20025;-76
2021/03/14 01:16:20;;;;;;;0.70;0.50;;;4.40;99.90;;;;;;5020874;28;20057;-77
2021/03/14 01:18:46;;;;;;;1.02;0.55;;;4.40;99.90;;;;;;5010459;28;20033;-73
2021/03/14 01:21:11;;;;;;;0.55;0.35;;;4.30;99.90;;;;;;5001409;28;20061;-72
2021/03/14 01:23:37;;;;;;;0.47;0.38;;;4.30;99.90;;;;;;5020186;28;20026;-74
2021/03/14 01:26:02;;;;;;;1.38;0.40;;;4.30;99.90;;;;;;5006980;28;20030;-74
2021/03/14 01:28:28;;;;;;;0.50;0.50;;;4.20;99.90;;;;;;5001002;28;20026;-74
2021/03/14 01:30:54;;;;;;;0.40;0.40;;;4.30;99.90;;;;;;4998815;28;20510;-72
2021/03/14 01:33:20;;;;;;;0.40;0.40;;;4.30;99.90;;;;;;4997411;28;20038;-74
2021/03/14 01:35:46;;;;;;;0.30;0.30;;;4.30;99.90;;;;;;4998402;28;20421;-73
2021/03/14 01:38:11;;;;;;;0.30;0.30;;;4.20;99.90;;;;;;4997791;28;20105;-75
2021/03/14 01:40:37;;;;;;;2.53;0.50;;;4.30;99.90;;;;;;5000201;28;20386;-72
2021/03/14 01:43:03;;;;;;;0.38;0.38;;;4.30;99.90;;;;;;5017911;28;20052;-72
2021/03/14 01:45:29;;;;;;;1.75;0.45;;;4.30;99.90;;;;;;5013125;28;20061;-73
2021/03/14 01:48:07;;;;;;;0.35;0.30;;;4.30;99.90;;;;;;5016133;28;20022;-72
2021/03/14 01:50:35;;;;;;;0.30;0.30;;;4.30;99.90;;;;;;5018694;28;20036;-73
2021/03/14 01:53:01;;;;;;;0.38;0.32;;;4.30;99.90;;;;;;5018335;28;20022;-72
2021/03/14 01:55:27;;;;;;;0.45;0.43;;;4.30;99.90;;;;;;5006141;28;20053;-73
2021/03/14 01:57:54;;;;;;;1.48;0.30;;;4.30;99.90;;;;;;4997669;28;20506;-73
2021/03/14 02:00:24;;;;;;;0.68;0.47;;;4.30;99.90;;;;;;5013760;28;20034;-71
2021/03/14 02:02:49;;;;;;;0.28;0.28;;;4.30;99.90;;;;;;5006499;28;20031;-72
2021/03/14 02:05:18;;;;;;;0.30;0.30;;;4.30;99.90;;;;;;4999747;28;20085;-72
2021/03/14 02:07:47;;;;;;;1.55;0.30;;;4.30;99.90;;;;;;4999417;28;20037;-73
2021/03/14 02:10:15;;;;;;;0.52;0.32;;;4.30;99.90;;;;;;4998288;28;20058;-72
2021/03/14 02:12:54;;;;;;;0.20;0.20;;;4.30;99.90;;;;;;5003304;28;20022;-74
2021/03/14 02:15:22;;;;;;;0.50;0.50;;;4.20;99.90;;;;;;5015179;28;20025;-73
2021/03/14 02:17:49;;;;;;;0.63;0.30;;;4.30;99.90;;;;;;5004436;28;20026;-73
2021/03/14 02:20:18;;;;;;;0.28;0.20;;;4.30;99.90;;;;;;5014216;28;20521;-73
2021/03/14 02:22:46;;;;;;;0.22;0.22;;;4.30;99.90;;;;;;5011128;28;20076;-73
2021/03/14 02:25:22;;;;;;;0.40;0.40;;;4.20;99.90;;;;;;5013543;28;20171;-72
2021/03/14 02:27:49;;;;;;;0.38;0.38;;;4.30;99.90;;;;;;5015564;28;20025;-72
2021/03/14 02:30:15;;;;;;;0.20;0.20;;;4.20;99.90;;;;;;5009926;28;20061;-73
2021/03/14 02:32:42;;;;;;;0.32;0.32;;;4.20;99.90;;;;;;5007655;28;20026;-72
2021/03/14 02:35:09;;;;;;;0.30;0.30;;;4.20;99.90;;;;;;5014333;28;20057;-73
2021/03/14 02:37:36;;;;;;;0.20;0.20;;;4.10;99.90;;;;;;5004064;28;20057;-73
2021/03/14 02:40:03;;;;;;;1.00;0.73;;;4.10;99.90;;;;;;5007382;28;20489;-74
2021/03/14 02:42:30;;;;;;;0.77;0.50;;;4.10;99.90;;;;;;5004175;28;20027;-72
2021/03/14 02:44:57;;;;;;;1.17;0.70;;;4.00;99.90;;;;;;5011971;28;20030;-72
2021/03/14 02:47:27;;;;;;;1.25;0.60;;;4.00;99.90;;;;;;5020250;28;20172;-72
2021/03/14 02:49:53;;;;;;;0.82;0.70;;;4.00;99.90;;;;;;5008923;28;20504;-73
2021/03/14 02:52:21;;;;;;;0.70;0.70;;;4.00;99.90;;;;;;5019430;28;20022;-73
2021/03/14 02:54:49;;;;;;;0.57;0.57;;;4.00;99.90;;;;;;5016579;28;20040;-73
2021/03/14 02:57:20;;;;;;;1.35;0.75;;;4.00;99.90;;;;;;5017539;28;20026;-73
2021/03/14 02:59:47;;;;;;;;;;;4.00;99.90;;;;;;5009300;28;20113;-73
2021/03/14 03:02:13;;;;;;;1.05;0.70;;;4.00;99.90;;;;;;5008155;28;20417;-73
2021/03/14 03:04:39;;;;;;;1.25;1.00;;;4.00;99.90;;;;;;5007013;28;20112;-72
2021/03/14 03:07:04;;;;;;;0.80;0.70;;;4.00;99.90;;;;;;5017222;28;20049;-73
2021/03/14 03:09:30;;;;;;;1.52;0.80;;;4.10;99.90;;;;;;5007226;28;20437;-73
2021/03/14 03:11:56;;;;;;;2.35;1.00;;;4.10;99.90;;;;;;4998956;28;20014;-73
2021/03/14 03:14:31;;;;;;;2.25;0.60;;;4.10;99.90;;;;;;5015703;28;20088;-72
2021/03/14 03:16:57;;;;;;;1.05;0.60;;;4.00;99.90;;;;;;4996417;28;20179;-73
2021/03/14 03:19:24;;;;;;;0.82;0.80;;;4.00;99.90;;;;;;5012415;28;20144;-72
2021/03/14 03:21:51;;;;;;;1.05;0.60;;;4.00;99.90;;;;;;5009066;28;20033;-72
2021/03/14 03:24:16;;;;;;;1.45;0.80;;;4.00;99.90;;;;;;5009650;28;20132;-73
2021/03/14 03:26:46;;;;;;;2.33;0.80;;;3.90;99.90;;;;;;5000756;28;20629;-73
2021/03/14 03:29:13;;;;;;;0.82;0.70;;;4.00;99.90;;;;;;5010424;28;20022;-73
2021/03/14 03:31:39;;;;;;;0.80;0.75;;;3.90;99.90;;;;;;5006146;28;20027;-72
2021/03/14 03:34:09;;;;;;;1.30;0.70;;;4.00;99.90;;;;;;5001962;28;20088;-73
2021/03/14 03:36:35;;;;;;;0.60;0.60;;;4.00;99.90;;;;;;5009682;28;20512;-73
2021/03/14 03:39:02;;;;;;;0.85;0.73;;;4.00;99.90;;;;;;5011735;28;20124;-73
2021/03/14 03:41:30;;;;;;;0.60;0.60;;;4.00;99.90;;;;;;5008707;28;20038;-73
2021/03/14 03:43:59;;;;;;;1.20;0.50;;;4.00;99.90;;;;;;5011560;28;20120;-73
2021/03/14 03:46:25;;;;;;;0.50;0.50;;;4.00;99.90;;;;;;5007677;28;20033;-73
2021/03/14 03:48:56;;;;;;;0.88;0.60;;;4.00;99.90;;;;;;5005422;28;20060;-73
2021/03/14 03:51:30;;;;;;;2.25;0.65;;;4.00;99.90;;;;;;5012927;28;20089;-73
2021/03/14 03:53:59;;;;;;;1.10;0.55;;;4.00;99.90;;;;;;5013861;28;20524;-73
2021/03/14 03:56:26;;;;;;;1.58;0.60;;;4.00;99.90;;;;;;5009418;28;20095;-73
2021/03/14 03:58:52;;;;;;;1.17;0.70;;;4.00;99.90;;;;;;5017178;28;20073;-72
2021/03/14 04:01:19;;;;;;;0.85;0.60;;;4.00;99.90;;;;;;5036799;28;20038;-73
2021/03/14 04:03:47;;;;;;;0.77;0.63;;;4.00;99.90;;;;;;5020913;28;20379;-72
2021/03/14 04:06:15;;;;;;;1.13;1.00;;;4.00;99.90;;;;;;5005446;28;20027;-73
2021/03/14 04:08:42;;;;;;;1.17;0.60;;;4.00;99.90;;;;;;5012024;28;20028;-73
2021/03/14 04:11:12;;;;;;;0.98;0.57;;;4.00;99.90;;;;;;5010338;28;20076;-72
2021/03/14 04:13:40;;;;;;;6.50;2.95;;;3.90;99.90;;;;;;4997709;28;20033;-73
2021/03/14 04:16:06;;;;;;;0.60;0.50;;;3.90;99.90;;;;;;5013283;28;20030;-73
2021/03/14 04:18:33;;;;;;;0.70;0.70;;;3.90;99.90;;;;;;5008921;28;20034;-74
2021/03/14 04:21:01;;;;;;;0.73;0.50;;;3.90;99.90;;;;;;5008422;28;20022;-73
2021/03/14 04:23:27;;;;;;;1.48;0.60;;;3.90;99.90;;;;;;5010355;28;20030;-72
2021/03/14 04:25:55;;;;;;;0.60;0.57;;;3.90;99.90;;;;;;5013291;28;20076;-72
2021/03/14 04:28:24;;;;;;;0.55;0.50;;;3.90;99.90;;;;;;5008176;28;20026;-72
2021/03/14 04:30:51;;;;;;;1.27;0.68;;;3.90;99.90;;;;;;5011719;28;20025;-73
2021/03/14 04:33:17;;;;;;;0.50;0.50;;;3.90;99.90;;;;;;5010843;28;20525;-73
2021/03/14 04:35:44;;;;;;;0.57;0.50;;;3.90;99.90;;;;;;5015932;28;20060;-71
2021/03/14 04:38:11;;;;;;;0.50;0.50;;;3.90;99.90;;;;;;5022662;28;20534;-72
2021/03/14 04:40:37;;;;;;;1.23;0.60;;;3.90;99.90;;;;;;5015633;28;20156;-73
2021/03/14 04:43:04;;;;;;;0.75;0.60;;;3.90;99.90;;;;;;5002220;28;20023;-73
2021/03/14 04:45:31;;;;;;;1.60;0.50;;;4.00;99.90;;;;;;5003608;28;20115;-73
2021/03/14 04:47:57;;;;;;;0.80;0.50;;;4.00;99.90;;;;;;4987699;28;20015;-73
2021/03/14 04:50:27;;;;;;;1.58;0.73;;;4.00;99.90;;;;;;5004147;28;20049;-73
2021/03/14 04:53:02;;;;;;;1.35;0.60;;;4.00;99.90;;;;;;5013137;28;20474;-73
2021/03/14 04:55:31;;;;;;;0.98;0.50;;;4.00;99.90;;;;;;5011572;28;20033;-73
2021/03/14 04:57:59;;;;;;;1.25;0.50;;;4.00;99.90;;;;;;5004673;28;20029;-73
2021/03/14 05:00:27;;;;;;;1.58;0.75;;;4.00;99.90;;;;;;5004983;28;20490;-73
2021/03/14 05:02:56;;;;;;;0.80;0.65;;;4.00;99.90;;;;;;5012804;28;20122;-73
2021/03/14 05:05:23;;;;;;;1.77;0.75;;;4.00;99.90;;;;;;5001412;28;20034;-74
2021/03/14 05:07:50;;;;;;;4.85;0.80;;;3.90;99.90;;;;;;5023179;28;20050;-73
2021/03/14 05:10:22;;;;;;;1.27;0.80;;;3.90;99.90;;;;;;5018308;28;20071;-72
2021/03/14 05:12:49;;;;;;;1.20;0.98;;;3.90;99.90;;;;;;5025547;28;19998;-74
2021/03/14 05:15:16;;;;;;;1.33;0.73;;;3.80;99.90;;;;;;5016526;28;20109;-73
2021/03/14 05:17:44;;;;;;;4.38;2.03;;;3.80;99.90;;;;;;5016187;28;20128;-74
2021/03/14 05:20:16;;;;;;;3.03;0.85;;;3.80;99.90;;;;;;4998266;28;20426;-73
2021/03/14 05:22:44;;;;;;;2.45;0.85;;;3.80;99.90;;;;;;5009595;28;20033;-73
2021/03/14 05:25:11;;;;;;;3.78;0.65;;;3.70;99.90;;;;;;5007325;28;20038;-72
2021/03/14 05:27:37;;;;;;;3.70;0.70;;;3.70;99.90;;;;;;5011671;28;20025;-72
2021/03/14 05:30:05;;;;;;;2.42;0.68;;;3.60;99.90;;;;;;5010726;28;20022;-73
2021/03/14 05:32:31;;;;;;;4.28;0.80;;;3.70;99.90;;;;;;5005197;28;20018;-73
2021/03/14 05:34:57;;;;;;;1.10;0.60;;;3.70;99.90;;;;;;5000401;28;20037;-73
2021/03/14 05:37:24;;;;;;;1.73;0.90;;;3.60;99.90;;;;;;5008090;28;20105;-73
2021/03/14 05:39:50;;;;;;;1.65;0.85;;;3.60;99.90;;;;;;5014543;28;20486;-73
2021/03/14 05:42:17;;;;;;;1.08;0.52;;;3.70;99.90;;;;;;5028012;28;20038;-72
2021/03/14 05:44:45;;;;;;;2.17;0.90;;;3.70;99.90;;;;;;5031030;28;20056;-72
2021/03/14 05:47:10;;;;;;;0.55;0.55;;;3.60;99.90;;;;;;5039993;28;20078;-73
2021/03/14 05:49:36;;;;;;;2.15;0.80;;;3.60;99.90;;;;;;5038063;28;20018;-72
2021/03/14 05:52:05;;;;;;;1.98;0.60;;;3.60;99.90;;;;;;5028611;28;20107;-73
2021/03/14 05:54:31;;;;;;;0.55;0.50;;;3.70;99.90;;;;;;5014590;28;20022;-73
2021/03/14 05:57:00;;;;;;;2.30;1.17;;;3.70;99.90;;;;;;5007424;28;20034;-73
2021/03/14 05:59:28;;;;;;;1.60;0.63;;;3.70;99.90;;;;;;5018252;28;20030;-74
2021/03/14 06:01:55;;;;;;;1.95;0.90;;;3.70;99.90;;;;;;5014403;28;20050;-73
2021/03/14 06:04:22;;;;;;;5.15;1.05;;;3.70;99.90;;;;;;5021510;28;20171;-73
2021/03/14 06:06:48;;;;;;;2.08;0.82;;;3.80;99.90;;;;;;5024723;28;20076;-73
2021/03/14 06:09:15;;;;;;;2.85;0.77;;;3.80;99.90;;;;;;5032268;28;20030;-73
2021/03/14 06:11:41;;;;;;;3.17;1.05;;;3.90;99.90;;;;;;5035724;28;20022;-74
2021/03/14 06:14:06;;;;;;;3.53;1.00;;;3.90;99.90;;;;;;5026861;28;20023;-74
2021/03/14 06:16:32;;;;;;;2.25;0.90;;;3.90;99.90;;;;;;5017333;28;20018;-73
2021/03/14 06:18:58;;;;;;;4.10;1.20;;;4.00;99.90;;;;;;5017680;28;20026;-73
2021/03/14 06:21:26;;;;;;;7.32;1.25;;;4.10;99.90;;;;;;5017956;28;20030;-73
2021/03/14 06:23:54;;;;;;;2.28;1.00;;;4.10;99.90;;;;;;5031851;28;20045;-73
2021/03/14 06:26:20;;;;;;;1.60;1.42;;;4.00;99.90;;;;;;5016480;28;20030;-72
2021/03/14 06:28:45;;;;;;;2.97;0.93;;;4.00;99.90;;;;;;5023329;28;20026;-73
2021/03/14 06:31:19;;;;;;;4.22;1.70;;;4.00;99.90;;;;;;5012483;28;20026;-73
2021/03/14 06:33:44;;;;;;;3.90;1.23;;;4.00;99.90;;;;;;5016307;28;20393;-74
2021/03/14 06:36:21;;;;;;;1.15;0.90;;;4.00;99.90;;;;;;5022149;28;20074;-73
2021/03/14 06:38:49;;;;;;;1.55;1.00;;;4.00;99.90;;;;;;5024843;28;20030;-73
2021/03/14 06:41:21;;;;;;;3.15;1.02;;;4.00;99.90;;;;;;5016851;28;20076;-74
2021/03/14 06:43:56;;;;;;;4.47;0.95;;;4.00;99.90;;;;;;5009534;28;20077;-74
2021/03/14 06:46:26;;;;;;;4.43;0.90;;;4.10;99.90;;;;;;5005705;28;20038;-72
2021/03/14 06:49:11;;;;;;;6.32;2.55;;;4.20;99.90;;;;;;5008532;28;20021;-74
2021/03/14 06:51:47;;;;;;;2.13;1.17;;;4.30;99.90;;;;;;4999335;28;20458;-74
2021/03/14 06:54:22;;;;;;;2.60;0.85;;;4.30;99.90;;;;;;5012899;28;20026;-72
2021/03/14 06:56:57;;;;;;;1.98;0.75;;;4.40;99.90;;;;;;5011439;28;20026;-73
2021/03/14 06:59:23;;;;;;;3.40;1.52;;;4.40;99.90;;;;;;5008671;28;20581;-73
2021/03/14 07:01:56;;;;;;;3.88;1.45;;;4.40;99.90;;;;;;5013892;28;20069;-73
2021/03/14 07:04:38;;;;;;;4.63;1.10;;;4.40;99.90;;;;;;5009716;28;20038;-74
2021/03/14 07:07:04;;;;;;;5.15;1.40;;;4.50;99.90;;;;;;5011747;28;20034;-74
2021/03/14 07:09:30;;;;;;;4.05;1.95;;;4.60;99.90;;;;;;5015842;28;20026;-73
2021/03/14 07:11:56;;;;;;;1.75;1.10;;;4.70;99.90;;;;;;5007827;28;20498;-72
2021/03/14 07:14:24;;;;;;;2.17;1.33;;;4.80;99.90;;;;;;5014901;28;20064;-72
2021/03/14 07:16:53;;;;;;;5.15;1.67;;;5.00;99.90;;;;;;5016296;28;20025;-72
2021/03/14 07:19:26;;;;;;;4.70;1.35;;;5.10;99.90;;;;;;5013917;28;20040;-74
2021/03/14 07:22:06;;;;;;;2.53;1.20;;;5.10;99.90;;;;;;5015472;28;20048;-72
2021/03/14 07:24:35;;;;;;;3.30;1.13;;;5.10;99.90;;;;;;5013501;28;20367;-72
2021/03/14 07:27:05;;;;;;;2.30;1.02;;;5.00;99.90;;;;;;5008301;28;20383;-73
2021/03/14 07:29:34;;;;;;;3.08;0.75;;;5.10;99.90;;;;;;5006284;28;20056;-72
2021/03/14 07:32:00;;;;;;;5.25;1.05;;;5.20;99.90;;;;;;4985232;28;20463;-74
2021/03/14 07:34:26;;;;;;;15.30;3.95;;;5.30;99.90;;;;;;5006897;28;20535;-72
2021/03/14 07:36:54;;;;;;;4.38;1.05;;;5.50;99.90;;;;;;5010354;28;20109;-73
2021/03/14 07:39:20;;;;;;;3.38;0.93;;;5.60;99.90;;;;;;5015235;28;20045;-72
2021/03/14 07:41:46;;;;;;;1.55;0.60;;;5.80;99.90;;;;;;5010914;28;20433;-72
2021/03/14 07:44:13;;;;;;;2.42;1.10;;;5.90;99.90;;;;;;5001940;28;20058;-72
2021/03/14 07:46:43;;;;;;;4.45;1.08;;;5.90;99.90;;;;;;5010973;28;20029;-73
2021/03/14 07:49:16;;;;;;;3.67;0.93;;;5.80;99.90;;;;;;5011031;28;20033;-73
2021/03/14 07:51:51;;;;;;;1.98;0.80;;;5.60;96.40;;;;;;4985681;28;20461;-73
2021/03/14 07:54:35;;;;;;;3.25;0.90;;;5.50;99.90;;;;;;5017278;28;20065;-72
2021/03/14 07:57:02;;;;;;;2.15;0.95;;;5.40;99.90;;;;;;5023189;28;20029;-73
2021/03/14 07:59:29;;;;;;;2.83;0.98;;;5.40;99.90;;;;;;5018488;28;20026;-73
2021/03/14 08:02:21;;;;;;;4.32;1.10;;;5.30;99.90;;;;;;5006553;28;20050;-74
2021/03/14 08:04:50;;;;;;;3.80;0.80;;;5.20;99.90;;;;;;5005613;28;20041;-73
2021/03/14 08:07:36;;;;;;;3.22;1.10;;;5.30;99.90;;;;;;5012753;28;20037;-73
2021/03/14 08:10:07;;;;;;;3.22;0.80;;;5.30;99.90;;;;;;5008828;28;20026;-73
2021/03/14 08:12:41;;;;;;;3.70;0.90;;;5.30;99.90;;;;;;5007216;28;20018;-73
2021/03/14 08:15:30;;;;;;;4.63;1.42;;;5.40;99.90;;;;;;5014787;28;20033;-73
2021/03/14 08:17:58;;;;;;;7.97;0.95;;;5.50;99.90;;;;;;4999006;28;20425;-73
2021/03/14 08:20:41;;;;;;;2.70;0.77;;;5.50;99.90;;;;;;5002045;28;20029;-74
2021/03/14 08:23:11;;;;;;;4.78;0.93;;;5.60;99.90;;;;;;5009066;28;20394;-74
2021/03/14 08:25:48;;;;;;;2.42;1.00;;;5.60;92.60;;;;;;5001403;28;20033;-73
2021/03/14 08:28:26;;;;;;;2.67;1.25;;;5.70;87.60;;;;;;5012311;28;20027;-74
2021/03/14 08:30:56;;;;;;;3.30;1.33;;;5.70;99.80;;;;;;5012750;28;20018;-74
2021/03/14 08:33:27;;;;;;;5.38;1.48;;;5.70;99.90;;;;;;5005501;28;20026;-73
2021/03/14 08:35:54;;;;;;;2.17;0.95;;;5.80;99.90;;;;;;5006022;28;20037;-74
2021/03/14 08:38:24;;;;;;;2.00;1.45;;;6.10;92.00;;;;;;5007673;28;20037;-74
2021/03/14 08:40:50;;;;;;;4.78;1.23;;;6.20;96.60;;;;;;5014395;28;20026;-75
2021/03/14 08:43:40;;;;;;;2.00;0.90;;;6.40;88.20;;;;;;5005505;28;20081;-74
2021/03/14 08:46:05;;;;;;;5.20;1.27;;;6.50;73.90;;;;;;5010156;28;20026;-73
2021/03/14 08:48:31;;;;;;;3.80;1.13;;;6.70;1.00;;;;;;5012551;28;20019;-78
2021/03/14 08:50:57;;;;;;;4.85;1.98;;;6.70;1.00;;;;;;5016124;28;20049;-74
2021/03/14 08:53:24;;;;;;;4.85;0.82;;;6.70;1.00;;;;;;4985723;28;20029;-74
2021/03/14 08:55:50;;;;;;;2.90;1.05;;;6.90;1.00;;;;;;5011187;28;20030;-74
2021/03/14 08:58:16;;;;;;;0.82;0.70;;;6.80;1.00;;;;;;5004385;28;20023;-75
2021/03/14 09:00:42;;;;;;;2.33;0.63;;;6.80;1.00;;;;;;5014566;28;20056;-74
2021/03/14 09:03:11;;;;;;;4.78;0.73;;;6.80;1.00;;;;;;5013273;28;20465;-74
2021/03/14 09:06:21;;;;;;;1.83;0.70;;;6.70;1.00;;;;;;4998723;28;20057;-75
2021/03/14 09:09:16;;;;;;;1.70;0.68;;;6.70;1.00;;;;;;4992854;28;20041;-76
2021/03/14 09:11:49;;;;;;;3.08;0.80;;;6.80;1.00;;;;;;4984423;28;20042;-74
2021/03/14 09:14:48;;;;;;;2.83;1.10;;;6.80;99.90;;;;;;5015035;28;20026;-73
2021/03/14 09:17:19;;;;;;;3.17;0.82;;;6.80;99.90;;;;;;5006207;28;20042;-74
2021/03/14 09:19:52;;;;;;;4.90;0.65;;;6.80;1.00;;;;;;5019334;28;20093;-73
2021/03/14 09:22:22;;;;;;;1.45;0.73;;;6.70;99.90;;;;;;5012963;28;20034;-74
2021/03/14 09:24:50;;;;;;;3.10;0.70;;;6.80;1.00;;;;;;5023014;28;20073;-74
2021/03/14 09:27:15;;;;;;;2.65;0.80;;;6.90;1.00;;;;;;5014272;28;20023;-74
2021/03/14 09:29:44;;;;;;;2.10;0.50;;;7.00;99.90;;;;;;5015799;28;20389;-74
2021/03/14 09:32:21;;;;;;;2.38;0.70;;;7.40;99.90;;;;;;5010116;28;20026;-73
2021/03/14 09:34:48;;;;;;;3.65;1.08;;;7.40;99.90;;;;;;5009353;28;20028;-73
2021/03/14 09:37:30;;;;;;;1.92;0.70;;;7.40;99.90;;;;;;5016548;28;20041;-73
2021/03/14 09:40:10;;;;;;;2.85;0.82;;;7.60;6.70;;;;;;5017152;28;20022;-74
2021/03/14 09:42:36;;;;;;;3.70;0.90;;;7.90;41.30;;;;;;5011438;28;20494;-73
2021/03/14 09:45:06;;;;;;;4.75;1.10;;;8.40;1.00;;;;;;5016468;28;20025;-74
2021/03/14 09:47:32;;;;;;;4.33;0.67;;;8.40;1.00;;;;;;5013169;28;20076;-74
2021/03/14 09:50:07;;;;;;;2.40;0.80;;;8.40;1.00;;;;;;5018602;28;20026;-74
2021/03/14 09:52:33;;;;;;;2.17;0.70;;;7.90;99.90;;;;;;5013892;28;20110;-74
2021/03/14 09:54:59;;;;;;;3.47;0.60;;;7.60;52.00;;;;;;5014893;28;20085;-73
2021/03/14 09:57:25;;;;;;;2.42;1.20;;;7.50;98.00;;;;;;5016027;28;20034;-73
2021/03/14 09:59:50;;;;;;;2.03;0.80;;;7.20;99.90;;;;;;5018661;28;20101;-75
2021/03/14 10:02:17;;;;;;;6.38;1.27;;;7.10;99.90;;;;;;5016977;28;20038;-73
2021/03/14 10:04:49;;;;;;;1.98;0.60;;;7.20;99.90;;;;;;5022089;28;20030;-73
2021/03/14 10:07:25;;;;;;;2.22;0.90;;;7.10;99.90;;;;;;5019036;28;20037;-73
2021/03/14 10:09:51;;;;;;;0.63;0.40;;;7.20;1.00;;;;;;5015882;28;20041;-74
2021/03/14 10:12:18;;;;;;;1.88;0.88;;;7.00;46.10;;;;;;5019013;28;20027;-72
2021/03/14 10:14:45;;;;;;;1.50;0.77;;;7.10;1.00;;;;;;5020035;28;20033;-73
2021/03/14 10:17:14;;;;;;;1.48;0.82;;;7.00;1.00;;;;;;5015031;28;20125;-74
2021/03/14 10:19:41;;;;;;;3.90;2.25;;;7.00;21.20;;;;;;5004493;28;20022;-74
2021/03/14 10:22:06;;;;;;;4.60;0.70;;;7.00;99.90;;;;;;5011341;28;20049;-73
2021/03/14 10:24:32;;;;;;;2.05;1.00;;;7.00;89.60;;;;;;5023095;28;20022;-73
2021/03/14 10:27:00;;;;;;;1.58;0.77;;;7.10;99.90;;;;;;5018306;28;20019;-73
2021/03/14 10:29:40;;;;;;;1.75;0.55;;;7.40;99.90;;;;;;5009724;28;20019;-73
2021/03/14 10:32:19;;;;;;;2.38;0.80;;;7.50;1.00;;;;;;5003599;28;20034;-74
2021/03/14 10:34:53;;;;;;;3.67;0.68;;;7.40;99.90;;;;;;5013469;28;20141;-74
2021/03/14 10:37:31;;;;;;;3.78;1.25;;;7.60;99.90;;;;;;5016262;28;20165;-73
2021/03/14 10:40:05;;;;;;;2.53;0.98;;;7.70;99.90;;;;;;5011622;28;20117;-74
2021/03/14 10:42:37;;;;;;;3.65;0.73;;;7.80;75.50;;;;;;5018658;28;20627;-75
2021/03/14 10:45:15;;;;;;;0.75;0.60;;;7.90;1.00;;;;;;5021594;28;20034;-74
2021/03/14 10:47:42;;;;;;;3.40;0.80;;;7.70;99.90;;;;;;5005708;28;20045;-77
2021/03/14 10:50:18;;;;;;;0.57;0.50;;;7.60;4.70;;;;;;5016279;28;20022;-75
2021/03/14 10:52:45;;;;;;;2.08;0.90;;;7.80;99.90;;;;;;5011132;28;20026;-75
2021/03/14 10:55:28;;;;;;;4.05;0.60;;;7.70;23.60;;;;;;5017511;28;20512;-72
2021/03/14 10:58:11;;;;;;;2.15;0.60;;;7.80;99.90;;;;;;5015786;28;20450;-74
2021/03/14 11:00:42;;;;;;;1.83;0.70;;;7.90;1.00;;;;;;5005180;28;20031;-74
2021/03/14 11:03:13;;;;;;;4.40;0.80;;;8.20;1.00;;;;;;5012443;28;20045;-74
2021/03/14 11:05:42;;;;;;;1.80;0.57;;;8.20;29.60;;;;;;5019267;28;20030;-72
2021/03/14 11:08:08;;;;;;;2.03;0.50;;;8.70;46.80;;;;;;5004758;28;20026;-74
2021/03/14 11:10:34;;;;;;;1.92;1.05;;;9.00;1.00;;;;;;5017059;28;20029;-73
2021/03/14 11:13:14;;;;;;;2.92;0.60;;;8.80;1.00;;;;;;5005121;28;20026;-73
2021/03/14 11:15:39;;;;;;;1.33;0.60;;;8.70;99.90;;;;;;5000948;28;20030;-75
2021/03/14 11:18:05;;;;;;;4.72;1.33;;;8.20;49.30;;;;;;5005801;28;20035;-73
2021/03/14 11:20:32;;;;;;;1.52;0.70;;;8.10;74.00;;;;;;5020305;28;20026;-74
2021/03/14 11:23:00;;;;;;;2.92;0.98;;;8.20;99.90;;;;;;5018879;28;20021;-73
2021/03/14 11:25:25;;;;;;;5.80;1.60;;;8.20;19.80;;;;;;5026885;28;20026;-74
2021/03/14 11:27:52;;;;;;;1.63;1.00;;;8.10;1.00;;;;;;5024740;28;20363;-74
2021/03/14 11:30:20;;;;;;;1.30;0.50;;;7.90;99.90;;;;;;5016097;28;20450;-73
2021/03/14 11:32:45;;;;;;;2.83;0.70;;;7.90;99.90;;;;;;5007861;28;20027;-74
2021/03/14 11:35:12;;;;;;;1.88;0.70;;;8.00;99.90;;;;;;5003799;28;20018;-76
2021/03/14 11:37:38;;;;;;;1.88;0.63;;;8.10;99.90;;;;;;5008208;28;20033;-75
2021/03/14 11:40:08;;;;;;;2.10;0.73;;;8.30;99.90;;;;;;5019154;28;20033;-74
2021/03/14 11:42:35;;;;;;;2.97;0.77;;;8.40;99.90;;;;;;5015217;28;20026;-72
2021/03/14 11:45:01;;;;;;;3.95;0.73;;;8.00;79.80;;;;;;5017653;28;20029;-75
2021/03/14 11:47:26;;;;;;;3.42;0.70;;;7.90;99.90;;;;;;5010062;28;20050;-75
2021/03/14 11:49:52;;;;;;;5.03;2.03;;;7.80;1.00;;;;;;4995920;28;20027;-73
2021/03/14 11:52:18;;;;;;;2.97;1.30;;;8.00;1.00;;;;;;4998638;28;20054;-74
2021/03/14 11:54:43;;;;;;;0.70;0.40;;;8.30;1.00;;;;;;4982251;28;20523;-75
2021/03/14 11:57:11;;;;;;;1.42;0.63;;;8.30;20.30;;;;;;4979265;28;20027;-73
2021/03/14 11:59:37;;;;;;;5.47;2.45;;;8.00;99.90;;;;;;4985571;28;20035;-71
2021/03/14 12:02:03;;;;;;;1.70;0.73;;;8.10;1.00;;;;;;4998207;28;20031;-73
2021/03/14 12:04:29;;;;;;;1.33;0.98;;;8.10;99.90;;;;;;5002674;28;20030;-75
2021/03/14 12:06:54;;;;;;;3.63;1.10;;;8.10;1.00;;;;;;4994975;28;20018;-74
2021/03/14 12:09:20;;;;;;;4.30;0.80;;;8.10;99.90;;;;;;5001614;28;20018;-74
2021/03/14 12:11:46;;;;;;;1.13;0.60;;;8.30;99.90;;;;;;4994594;28;20015;-76
2021/03/14 12:14:12;;;;;;;3.53;0.55;;;8.20;1.00;;;;;;4981097;28;20035;-75
2021/03/14 12:16:37;;;;;;;4.47;1.25;;;8.10;1.00;;;;;;4985872;28;20105;-75
2021/03/14 12:19:04;;;;;;;3.58;0.95;;;8.00;99.90;;;;;;4989077;28;20037;-74
2021/03/14 12:21:29;;;;;;;2.92;0.82;;;7.80;99.90;;;;;;4983721;28;20049;-75
2021/03/14 12:23:55;;;;;;;2.60;0.80;;;7.80;1.00;;;;;;4983276;28;20070;-75
2021/03/14 12:26:22;;;;;;;5.53;0.80;;;7.60;99.90;;;;;;4989406;28;20414;-75
2021/03/14 12:28:48;;;;;;;3.80;0.65;;;7.60;99.90;;;;;;4978687;28;20057;-76
2021/03/14 12:31:15;;;;;;;3.67;1.00;;;7.30;8.00;;;;;;4977303;28;20395;-75
2021/03/14 12:33:41;;;;;;;6.28;1.70;;;7.00;99.90;;;;;;4976117;28;20026;-75
2021/03/14 12:36:07;;;;;;;3.45;0.90;;;6.80;1.00;;;;;;4976535;28;20037;-76
2021/03/14 12:38:32;;;;;;;3.05;1.13;;;6.70;1.00;;;;;;4976976;28;20394;-75
2021/03/14 12:40:58;;;;;;;2.80;1.08;;;6.70;1.00;;;;;;4978989;28;20034;-76
2021/03/14 12:43:26;;;;;;;2.58;1.40;;;6.60;39.90;;;;;;4977796;28;20034;-75
2021/03/14 12:45:52;;;;;;;3.13;0.63;;;6.30;93.90;;;;;;5000180;28;20014;-75
2021/03/14 12:48:18;;;;;;;1.17;0.50;;;6.20;99.90;;;;;;4997841;28;20033;-76
2021/03/14 12:50:45;;;;;;;2.13;0.70;;;6.20;99.90;;;;;;4995608;28;20102;-75
2021/03/14 12:53:10;;;;;;;2.40;0.75;;;6.30;99.90;;;;;;4995016;28;20034;-77
2021/03/14 12:55:36;;;;;;;3.83;0.60;;;6.10;99.90;;;;;;4996835;28;20061;-77
2021/03/14 12:58:02;;;;;;;1.92;0.82;;;6.00;99.90;;;;;;4996575;28;20061;-77
2021/03/14 13:00:29;;;;;;;2.75;1.20;;;6.00;99.90;;;;;;4996305;28;20410;-76
2021/03/14 13:02:54;;;;;;;1.90;0.80;;;6.00;99.90;;;;;;4995887;28;20125;-75
2021/03/14 13:05:20;;;;;;;8.25;0.98;;;5.90;99.90;;;;;;4998142;28;20061;-76